createdAt,value
2016-09-02T00:00:23.234Z,1035.99
2016-09-02T00:01:23.232Z,1035.94
2016-09-02T00:02:23.360Z,1035.91
2016-09-02T00:03:23.227Z,1035.89
2016-09-02T00:04:23.223Z,1035.86
2016-09-02T00:05:23.225Z,1035.8
2016-09-02T00:06:23.224Z,1035.79
2016-09-02T00:07:23.222Z,1035.75
2016-09-02T00:08:23.219Z,1035.74
2016-09-02T00:09:23.211Z,1035.64
2016-09-02T00:10:23.208Z,1035.65
2016-09-02T00:11:23.204Z,1035.62
2016-09-02T00:12:23.208Z,1035.61
2016-09-02T00:13:23.206Z,1035.6
2016-09-02T00:14:23.198Z,1035.59
2016-09-02T00:15:23.200Z,1035.56
2016-09-02T00:16:23.194Z,1035.53
2016-09-02T00:17:23.189Z,1035.52
2016-09-02T00:18:23.193Z,1035.5
2016-09-02T00:19:23.190Z,1035.51
2016-09-02T00:20:23.183Z,1035.52
2016-09-02T00:21:23.179Z,1035.48
2016-09-02T00:22:23.177Z,1035.45
2016-09-02T00:23:23.175Z,1035.43
2016-09-02T00:24:23.173Z,1035.35
2016-09-02T00:25:23.171Z,1035.3
2016-09-02T00:26:23.169Z,1035.26
2016-09-02T00:27:23.166Z,1035.2
2016-09-02T00:28:23.163Z,1035.2
2016-09-02T00:29:23.167Z,1035.15
2016-09-02T00:30:23.215Z,1035.12
2016-09-02T00:31:23.161Z,1035.1
2016-09-02T00:32:23.154Z,1035.07
2016-09-02T00:33:23.157Z,1035.08
2016-09-02T00:34:23.149Z,1035.08
2016-09-02T00:35:23.146Z,1035.1
2016-09-02T00:36:23.144Z,1035.11
2016-09-02T00:37:23.148Z,1035.09
2016-09-02T00:38:23.140Z,1035.08
2016-09-02T00:39:23.140Z,1035.04
2016-09-02T00:40:23.136Z,1035.03
2016-09-02T00:41:23.133Z,1035.01
2016-09-02T00:43:23.130Z,1034.97
2016-09-02T00:44:23.152Z,1034.97
2016-09-02T00:45:23.125Z,1035
2016-09-02T00:46:23.397Z,1034.98
2016-09-02T00:47:23.122Z,1034.94
2016-09-02T00:48:23.118Z,1034.94
2016-09-02T00:49:23.116Z,1034.93
2016-09-02T00:50:23.121Z,1034.94
2016-09-02T00:51:23.305Z,1034.95
2016-09-02T00:52:24.649Z,1034.95
2016-09-02T00:53:23.110Z,1034.94
2016-09-02T00:54:23.107Z,1034.93
2016-09-02T00:55:23.106Z,1034.98
2016-09-02T00:56:23.109Z,1034.95
2016-09-02T00:57:23.103Z,1034.94
2016-09-02T00:58:23.104Z,1034.95
2016-09-02T00:59:23.095Z,1034.95
2016-09-02T01:00:23.101Z,1034.95
2016-09-02T01:01:23.094Z,1034.94
2016-09-02T01:02:23.090Z,1034.96
2016-09-02T01:03:23.095Z,1034.98
2016-09-02T01:04:23.087Z,1034.98
2016-09-02T01:05:23.091Z,1034.95
2016-09-02T01:06:23.085Z,1034.94
2016-09-02T01:07:23.082Z,1034.96
2016-09-02T01:08:23.082Z,1034.98
2016-09-02T01:09:23.079Z,1034.94
2016-09-02T01:10:23.078Z,1034.9
2016-09-02T01:11:23.081Z,1034.86
2016-09-02T01:12:23.073Z,1034.8
2016-09-02T01:13:23.077Z,1034.78
2016-09-02T01:14:23.070Z,1034.78
2016-09-02T01:15:23.078Z,1034.85
2016-09-02T01:16:23.066Z,1034.9
2016-09-02T01:17:23.063Z,1034.93
2016-09-02T01:18:23.061Z,1034.9
2016-09-02T01:19:23.059Z,1034.89
2016-09-02T01:20:23.058Z,1034.93
2016-09-02T01:21:23.055Z,1034.9
2016-09-02T01:22:23.054Z,1034.87
2016-09-02T01:23:23.059Z,1034.9
2016-09-02T01:24:23.050Z,1034.9
2016-09-02T01:25:23.055Z,1034.93
2016-09-02T01:26:23.047Z,1034.96
2016-09-02T01:27:23.052Z,1034.96
2016-09-02T01:28:23.043Z,1035
2016-09-02T01:29:23.041Z,1035.04
2016-09-02T01:30:23.130Z,1035.04
2016-09-02T01:31:23.038Z,1035.07
2016-09-02T01:32:23.037Z,1035.1
2016-09-02T01:33:23.040Z,1035.15
2016-09-02T01:34:23.033Z,1035.12
2016-09-02T01:35:23.518Z,1035.2
2016-09-02T01:36:23.030Z,1035.22
2016-09-02T01:37:23.029Z,1035.2
2016-09-02T01:38:23.025Z,1035.16
2016-09-02T01:39:23.024Z,1035.15
2016-09-02T01:40:23.021Z,1035.15
2016-09-02T01:41:23.020Z,1035.15
2016-09-02T01:42:23.017Z,1035.17
2016-09-02T01:43:23.015Z,1035.2
2016-09-02T01:44:23.013Z,1035.14
2016-09-02T01:45:23.019Z,1035.15
2016-09-02T01:46:23.009Z,1035.15
2016-09-02T01:47:23.008Z,1035.17
2016-09-02T01:48:23.015Z,1035.19
2016-09-02T01:49:23.004Z,1035.21
2016-09-02T01:50:23.008Z,1035.24
2016-09-02T01:51:23.001Z,1035.29
2016-09-02T01:52:23.000Z,1035.28
2016-09-02T01:53:22.999Z,1035.3
2016-09-02T01:54:22.994Z,1035.31
2016-09-02T01:55:22.995Z,1035.35
2016-09-02T01:56:22.991Z,1035.34
2016-09-02T01:57:22.991Z,1035.34
2016-09-02T01:58:22.987Z,1035.35
2016-09-02T01:59:22.986Z,1035.37
2016-09-02T02:00:23.865Z,1035.42
2016-09-02T02:02:22.978Z,1035.48
2016-09-02T02:03:22.977Z,1035.52
2016-09-02T02:04:23.024Z,1035.53
2016-09-02T02:05:22.972Z,1035.6
2016-09-02T02:06:22.970Z,1035.62
2016-09-02T02:07:22.981Z,1035.61
2016-09-02T02:08:23.517Z,1035.65
2016-09-02T02:09:22.963Z,1035.69
2016-09-02T02:11:23.617Z,1035.8
2016-09-02T02:12:22.957Z,1035.85
2016-09-02T02:14:22.953Z,1035.99
2016-09-02T02:15:22.951Z,1036.03
2016-09-02T02:16:22.960Z,1036.04
2016-09-02T02:18:22.944Z,1036.08
2016-09-02T02:19:23.397Z,1036.1
2016-09-02T02:20:22.940Z,1036.06
2016-09-02T02:21:22.943Z,1036.16
2016-09-02T02:22:22.937Z,1036.17
2016-09-02T02:23:22.937Z,1036.21
2016-09-02T02:24:22.929Z,1036.19
2016-09-02T02:25:23.102Z,1036.19
2016-09-02T02:26:22.927Z,1036.2
2016-09-02T02:27:22.921Z,1036.18
2016-09-02T02:28:22.919Z,1036.16
2016-09-02T02:29:22.923Z,1036.16
2016-09-02T02:30:22.913Z,1036.14
2016-09-02T02:31:22.917Z,1036.16
2016-09-02T02:32:22.911Z,1036.15
2016-09-02T02:33:22.907Z,1036.16
2016-09-02T02:34:22.905Z,1036.14
2016-09-02T02:35:23.494Z,1036.13
2016-09-02T02:36:22.899Z,1036.14
2016-09-02T02:37:22.896Z,1036.07
2016-09-02T02:38:22.896Z,1036.06
2016-09-02T02:39:22.890Z,1036.02
2016-09-02T02:40:22.888Z,1035.98
2016-09-02T02:41:22.886Z,1036
2016-09-02T02:42:22.882Z,1035.98
2016-09-02T02:43:22.887Z,1036.01
2016-09-02T02:44:22.880Z,1036.01
2016-09-02T02:45:22.881Z,1036
2016-09-02T02:46:22.872Z,1035.99
2016-09-02T02:47:22.869Z,1035.98
2016-09-02T02:48:22.866Z,1035.97
2016-09-02T02:49:22.868Z,1035.96
2016-09-02T02:50:22.882Z,1035.99
2016-09-02T02:51:22.859Z,1035.98
2016-09-02T02:52:22.861Z,1036.04
2016-09-02T02:53:22.855Z,1036.1
2016-09-02T02:54:22.856Z,1036.06
2016-09-02T02:55:22.848Z,1036.09
2016-09-02T02:56:22.851Z,1036.06
2016-09-02T02:57:22.842Z,1036.08
2016-09-02T02:58:22.840Z,1036.06
2016-09-02T02:59:22.842Z,1036.09
2016-09-02T03:00:22.836Z,1036.09
2016-09-02T03:01:22.838Z,1036.12
2016-09-02T03:02:22.835Z,1036.18
2016-09-02T03:03:22.825Z,1036.23
2016-09-02T03:04:22.825Z,1036.21
2016-09-02T03:05:22.821Z,1036.23
2016-09-02T03:06:22.824Z,1036.26
2016-09-02T03:07:22.815Z,1036.26
2016-09-02T03:08:22.818Z,1036.29
2016-09-02T03:09:22.810Z,1036.33
2016-09-02T03:10:22.812Z,1036.32
2016-09-02T03:11:22.803Z,1036.38
2016-09-02T03:12:22.801Z,1036.38
2016-09-02T03:13:22.801Z,1036.41
2016-09-02T03:14:22.795Z,1036.44
2016-09-02T03:15:22.791Z,1036.48
2016-09-02T03:16:22.796Z,1036.49
2016-09-02T03:17:22.789Z,1036.47
2016-09-02T03:18:22.785Z,1036.5
2016-09-02T03:19:23.258Z,1036.54
2016-09-02T03:20:22.778Z,1036.5
2016-09-02T03:21:22.774Z,1036.51
2016-09-02T03:22:22.772Z,1036.53
2016-09-02T03:23:22.768Z,1036.55
2016-09-02T03:24:22.767Z,1036.57
2016-09-02T03:25:23.023Z,1036.61
2016-09-02T03:26:22.761Z,1036.65
2016-09-02T03:28:22.756Z,1036.66
2016-09-02T03:29:24.344Z,1036.7
2016-09-02T03:30:22.754Z,1036.71
2016-09-02T03:31:22.801Z,1036.76
2016-09-02T03:32:23.145Z,1036.76
2016-09-02T03:33:22.745Z,1036.78
2016-09-02T03:34:22.738Z,1036.83
2016-09-02T03:35:22.743Z,1036.78
2016-09-02T03:36:23.537Z,1036.84
2016-09-02T03:37:22.777Z,1036.86
2016-09-02T03:38:23.031Z,1036.9
2016-09-02T03:39:22.720Z,1036.88
2016-09-02T03:40:22.717Z,1036.91
2016-09-02T03:41:22.716Z,1036.92
2016-09-02T03:42:22.717Z,1036.97
2016-09-02T03:43:22.707Z,1036.93
2016-09-02T03:44:22.711Z,1036.97
2016-09-02T03:45:22.701Z,1036.99
2016-09-02T03:46:22.698Z,1037.02
2016-09-02T03:47:22.695Z,1036.97
2016-09-02T03:48:22.697Z,1037.03
2016-09-02T03:49:22.688Z,1037.07
2016-09-02T03:50:22.693Z,1037.14
2016-09-02T03:51:22.682Z,1037.15
2016-09-02T03:52:22.677Z,1037.15
2016-09-02T03:53:22.675Z,1037.17
2016-09-02T03:54:22.670Z,1037.2
2016-09-02T03:55:22.667Z,1037.23
2016-09-02T03:56:22.675Z,1037.26
2016-09-02T03:57:22.662Z,1037.26
2016-09-02T03:58:22.657Z,1037.28
2016-09-02T03:59:22.654Z,1037.29
2016-09-02T04:00:22.656Z,1037.27
2016-09-02T04:01:22.647Z,1037.31
2016-09-02T04:02:22.649Z,1037.28
2016-09-02T04:03:22.650Z,1037.25
2016-09-02T04:04:22.639Z,1037.25
2016-09-02T04:05:22.638Z,1037.3
2016-09-02T04:06:22.628Z,1037.32
2016-09-02T04:07:22.627Z,1037.34
2016-09-02T04:08:22.624Z,1037.34
2016-09-02T04:09:22.617Z,1037.37
2016-09-02T04:10:22.621Z,1037.37
2016-09-02T04:11:22.614Z,1037.39
2016-09-02T04:12:22.608Z,1037.37
2016-09-02T04:13:22.612Z,1037.41
2016-09-02T04:14:22.607Z,1037.41
2016-09-02T04:15:22.598Z,1037.4
2016-09-02T04:16:22.594Z,1037.41
2016-09-02T04:17:22.589Z,1037.45
2016-09-02T04:18:22.589Z,1037.43
2016-09-02T04:19:22.583Z,1037.42
2016-09-02T04:20:22.581Z,1037.41
2016-09-02T04:21:22.582Z,1037.46
2016-09-02T04:22:22.571Z,1037.4
2016-09-02T04:23:22.569Z,1037.44
2016-09-02T04:24:22.564Z,1037.42
2016-09-02T04:25:22.560Z,1037.42
2016-09-02T04:26:22.557Z,1037.39
2016-09-02T04:27:22.553Z,1037.42
2016-09-02T04:28:22.551Z,1037.42
2016-09-02T04:29:22.546Z,1037.42
2016-09-02T04:30:22.547Z,1037.42
2016-09-02T04:31:22.544Z,1037.4
2016-09-02T04:32:22.534Z,1037.43
2016-09-02T04:33:22.530Z,1037.46
2016-09-02T04:34:22.526Z,1037.46
2016-09-02T04:35:22.531Z,1037.43
2016-09-02T04:36:22.519Z,1037.43
2016-09-02T04:37:22.516Z,1037.47
2016-09-02T04:38:22.517Z,1037.48
2016-09-02T04:39:22.508Z,1037.53
2016-09-02T04:40:22.504Z,1037.48
2016-09-02T04:41:22.503Z,1037.47
2016-09-02T04:42:22.497Z,1037.43
2016-09-02T04:43:22.798Z,1037.4
2016-09-02T04:44:22.490Z,1037.3
2016-09-02T04:45:22.485Z,1037.2
2016-09-02T04:46:22.483Z,1037.16
2016-09-02T04:47:23.301Z,1037.08
2016-09-02T04:48:23.804Z,1036.96
2016-09-02T04:49:22.627Z,1036.88
2016-09-02T04:50:22.470Z,1036.82
2016-09-02T04:51:22.471Z,1036.77
2016-09-02T04:52:22.460Z,1036.69
2016-09-02T04:53:22.457Z,1036.6
2016-09-02T04:54:22.854Z,1036.47
2016-09-02T04:55:22.451Z,1036.4
2016-09-02T04:56:22.447Z,1036.24
2016-09-02T04:57:22.444Z,1036.11
2016-09-02T04:58:22.442Z,1036.01
2016-09-02T04:59:22.440Z,1035.97
2016-09-02T05:00:22.440Z,1035.9
2016-09-02T05:01:22.431Z,1035.82
2016-09-02T05:02:22.434Z,1035.7
2016-09-02T05:03:22.428Z,1035.58
2016-09-02T05:04:22.423Z,1035.45
2016-09-02T05:05:22.543Z,1035.37
2016-09-02T05:06:22.419Z,1035.3
2016-09-02T05:07:22.416Z,1035.18
2016-09-02T05:08:22.421Z,1034.98
2016-09-02T05:09:22.412Z,1034.75
2016-09-02T05:10:22.410Z,1034.6
2016-09-02T05:11:22.414Z,1034.49
2016-09-02T05:12:22.413Z,1034.32
2016-09-02T05:13:22.414Z,1034.22
2016-09-02T05:14:22.409Z,1034.04
2016-09-02T05:15:22.409Z,1033.92
2016-09-02T05:16:22.401Z,1033.8
2016-09-02T05:17:22.406Z,1033.64
2016-09-02T05:18:22.398Z,1033.52
2016-09-02T05:19:22.398Z,1033.4
2016-09-02T05:20:22.404Z,1033.22
2016-09-02T05:21:22.398Z,1033.11
2016-09-02T05:22:22.403Z,1033.01
2016-09-02T05:23:22.398Z,1032.85
2016-09-02T05:24:22.404Z,1032.73
2016-09-02T05:25:22.398Z,1032.68
2016-09-02T05:26:22.398Z,1032.59
2016-09-02T05:27:22.399Z,1032.47
2016-09-02T05:28:22.401Z,1032.4
2016-09-02T05:29:22.402Z,1032.27
2016-09-02T05:30:22.410Z,1032.13
2016-09-02T05:31:22.405Z,1031.96
2016-09-02T05:32:22.410Z,1031.85
2016-09-02T05:33:22.410Z,1031.77
2016-09-02T05:34:22.410Z,1031.65
2016-09-02T05:35:22.417Z,1031.55
2016-09-02T05:36:22.424Z,1031.44
2016-09-02T05:37:22.420Z,1031.34
2016-09-02T05:38:22.429Z,1031.24
2016-09-02T05:39:22.426Z,1031.2
2016-09-02T05:40:22.460Z,1031.07
2016-09-02T05:41:22.433Z,1030.99
2016-09-02T05:42:22.437Z,1030.86
2016-09-02T05:43:22.442Z,1030.73
2016-09-02T05:44:22.445Z,1030.63
2016-09-02T05:45:22.450Z,1030.53
2016-09-02T05:46:22.461Z,1030.39
2016-09-02T05:47:22.461Z,1030.31
2016-09-02T05:48:22.466Z,1030.21
2016-09-02T05:49:22.477Z,1030.06
2016-09-02T05:50:22.483Z,1030.01
2016-09-02T05:51:22.484Z,1029.88
2016-09-02T05:52:22.488Z,1029.79
2016-09-02T05:53:22.494Z,1029.77
2016-09-02T05:54:22.508Z,1029.69
2016-09-02T05:55:22.659Z,1029.62
2016-09-02T05:56:22.520Z,1029.55
2016-09-02T05:57:22.526Z,1029.53
2016-09-02T05:58:25.390Z,1029.51
2016-09-02T05:59:22.536Z,1029.53
2016-09-02T06:00:22.546Z,1029.51
2016-09-02T06:01:22.550Z,1029.42
2016-09-02T06:02:22.556Z,1029.43
2016-09-02T06:03:22.563Z,1029.4
2016-09-02T06:04:22.576Z,1029.37
2016-09-02T06:05:23.587Z,1029.33
2016-09-02T06:06:23.977Z,1029.24
2016-09-02T06:07:22.646Z,1029.17
2016-09-02T06:08:22.601Z,1029.08
2016-09-02T06:09:22.612Z,1029.02
2016-09-02T06:10:22.620Z,1028.96
2016-09-02T06:11:22.626Z,1028.9
2016-09-02T06:12:22.635Z,1028.87
2016-09-02T06:13:22.643Z,1028.82
2016-09-02T06:14:22.651Z,1028.77
2016-09-02T06:15:22.665Z,1028.78
2016-09-02T06:16:22.669Z,1028.65
2016-09-02T06:17:22.677Z,1028.63
2016-09-02T06:18:22.688Z,1028.64
2016-09-02T06:19:22.703Z,1028.59
2016-09-02T06:20:22.706Z,1028.53
2016-09-02T06:21:22.722Z,1028.46
2016-09-02T06:22:22.724Z,1028.41
2016-09-02T06:23:22.733Z,1028.39
2016-09-02T06:24:22.740Z,1028.42
2016-09-02T06:25:22.751Z,1028.39
2016-09-02T06:26:22.762Z,1028.39
2016-09-02T06:27:22.776Z,1028.37
2016-09-02T06:31:22.814Z,1028.14
2016-09-02T06:32:22.819Z,1028.05
2016-09-02T06:33:23.642Z,1027.95
2016-09-02T06:34:22.839Z,1027.9
2016-09-02T06:35:24.130Z,1027.81
2016-09-02T06:36:22.858Z,1027.71
2016-09-02T06:37:22.866Z,1027.62
2016-09-02T06:38:22.877Z,1027.64
2016-09-02T06:39:22.888Z,1027.68
2016-09-02T06:40:22.896Z,1027.63
2016-09-02T06:41:22.909Z,1027.62
2016-09-02T06:42:22.916Z,1027.51
2016-09-02T06:43:22.927Z,1027.39
2016-09-02T06:44:22.937Z,1027.33
2016-09-02T06:45:22.948Z,1027.22
2016-09-02T06:46:22.957Z,1027.6
2016-09-02T06:47:22.971Z,1027.7
2016-09-02T06:48:22.978Z,1027.68
2016-09-02T06:49:22.991Z,1027.61
2016-09-02T06:50:23.002Z,1027.93
2016-09-02T06:51:23.017Z,1028.06
2016-09-02T06:52:23.021Z,1028.09
2016-09-02T06:53:23.031Z,1028.13
2016-09-02T06:54:23.049Z,1028.16
2016-09-02T06:55:23.052Z,1028.15
2016-09-02T06:56:23.066Z,1028.19
2016-09-02T06:57:23.074Z,1028.14
2016-09-02T06:58:23.084Z,1028.28
2016-09-02T06:59:23.095Z,1028.41
2016-09-02T07:00:23.112Z,1028.47
2016-09-02T07:01:23.116Z,1028.54
2016-09-02T07:02:23.126Z,1028.55
2016-09-02T07:03:23.139Z,1028.55
2016-09-02T07:04:23.151Z,1028.58
2016-09-02T07:05:23.156Z,1028.51
2016-09-02T07:06:23.174Z,1028.54
2016-09-02T07:07:23.177Z,1028.52
2016-09-02T07:08:23.192Z,1028.54
2016-09-02T07:09:23.199Z,1028.59
2016-09-02T07:10:23.208Z,1028.57
2016-09-02T07:11:23.219Z,1028.74
2016-09-02T07:12:23.226Z,1028.76
2016-09-02T07:13:23.237Z,1028.7
2016-09-02T07:15:23.263Z,1028.76
2016-09-02T07:16:23.270Z,1028.73
2016-09-02T07:17:23.277Z,1028.72
2016-09-02T07:18:23.386Z,1028.7
2016-09-02T07:19:23.301Z,1028.69
2016-09-02T07:20:23.307Z,1028.65
2016-09-02T07:21:23.321Z,1028.64
2016-09-02T07:22:23.326Z,1028.66
2016-09-02T07:23:24.513Z,1028.6
2016-09-02T07:24:23.696Z,1028.43
2016-09-02T07:26:23.366Z,1028.28
2016-09-02T07:27:23.686Z,1028.19
2016-09-02T07:28:23.383Z,1028.13
2016-09-02T07:29:23.394Z,1028.12
2016-09-02T07:30:23.409Z,1027.94
2016-09-02T07:31:23.419Z,1027.76
2016-09-02T07:32:23.781Z,1027.74
2016-09-02T07:33:23.434Z,1027.63
2016-09-02T07:34:23.449Z,1027.73
2016-09-02T07:35:23.478Z,1027.93
2016-09-02T07:36:23.462Z,1028.07
2016-09-02T07:37:23.474Z,1028.29
2016-09-02T07:38:23.485Z,1028.41
2016-09-02T07:39:23.499Z,1028.49
2016-09-02T07:40:23.853Z,1028.38
2016-09-02T07:41:23.515Z,1028.36
2016-09-02T07:42:23.523Z,1028.45
2016-09-02T07:43:23.540Z,1028.29
2016-09-02T07:44:23.543Z,1028.12
2016-09-02T07:45:23.555Z,1028.1
2016-09-02T07:46:23.565Z,1028.22
2016-09-02T07:47:23.576Z,1027.97
2016-09-02T07:48:23.584Z,1027.97
2016-09-02T07:49:23.603Z,1027.96
2016-09-02T07:50:23.604Z,1028.08
2016-09-02T07:51:23.616Z,1028.02
2016-09-02T07:52:23.624Z,1027.99
2016-09-02T07:53:23.634Z,1027.91
2016-09-02T07:54:23.645Z,1027.84
2016-09-02T07:55:23.654Z,1027.75
2016-09-02T07:56:23.664Z,1027.72
2016-09-02T07:57:23.675Z,1027.68
2016-09-02T07:58:23.684Z,1027.68
2016-09-02T07:59:23.694Z,1027.84
2016-09-02T08:00:23.714Z,1027.8
2016-09-02T08:01:23.716Z,1027.56
2016-09-02T08:02:23.725Z,1027.42
2016-09-02T08:03:23.735Z,1027.25
2016-09-02T08:04:23.745Z,1027.23
2016-09-02T08:05:23.755Z,1027.03
2016-09-02T08:06:23.765Z,1026.92
2016-09-02T08:07:23.783Z,1027.12
2016-09-02T08:08:23.786Z,1027.28
2016-09-02T08:09:23.803Z,1027.57
2016-09-02T08:10:24.057Z,1027.63
2016-09-02T08:11:23.818Z,1027.52
2016-09-02T08:12:23.827Z,1027.39
2016-09-02T08:13:23.840Z,1027.36
2016-09-02T08:14:23.853Z,1027.3
2016-09-02T08:15:23.857Z,1027.29
2016-09-02T08:16:23.868Z,1027.32
2016-09-02T08:17:23.880Z,1027.48
2016-09-02T08:18:23.888Z,1027.79
2016-09-02T08:19:23.913Z,1028.22
2016-09-02T08:20:23.909Z,1028.68
2016-09-02T08:21:23.924Z,1029.11
2016-09-02T08:22:23.929Z,1029.49
2016-09-02T08:23:23.938Z,1029.75
2016-09-02T08:24:23.949Z,1029.98
2016-09-02T08:25:23.957Z,1030.22
2016-09-02T08:26:23.967Z,1030.39
2016-09-02T08:27:23.983Z,1030.55
2016-09-02T08:28:23.986Z,1030.77
2016-09-02T08:29:23.994Z,1030.9
2016-09-02T08:30:24.005Z,1031.06
2016-09-02T08:31:24.014Z,1031.16
2016-09-02T08:32:24.020Z,1031.29
2016-09-02T08:33:24.034Z,1031.39
2016-09-02T08:34:24.708Z,1031.46
2016-09-02T08:35:24.342Z,1031.6
2016-09-02T08:36:24.058Z,1031.72
2016-09-02T08:37:24.077Z,1031.81
2016-09-02T08:38:24.087Z,1031.93
2016-09-02T08:39:24.075Z,1032.02
2016-09-02T08:40:24.086Z,1032.12
2016-09-02T08:41:25.486Z,1032.18
2016-09-02T08:42:24.099Z,1032.21
2016-09-02T08:43:24.910Z,1032.38
2016-09-02T08:44:24.692Z,1032.47
2016-09-02T08:45:24.126Z,1032.55
2016-09-02T08:46:24.532Z,1032.62
2016-09-02T08:47:24.134Z,1032.79
2016-09-02T08:48:24.140Z,1032.9
2016-09-02T08:49:24.146Z,1032.91
2016-09-02T08:50:24.251Z,1033.05
2016-09-02T08:51:24.159Z,1033.08
2016-09-02T08:52:24.171Z,1033.1
2016-09-02T08:53:24.173Z,1033.16
2016-09-02T08:54:24.282Z,1033.28
2016-09-02T08:55:24.183Z,1033.33
2016-09-02T08:56:24.195Z,1033.42
2016-09-02T08:57:24.206Z,1033.53
2016-09-02T08:58:24.206Z,1033.53
2016-09-02T08:59:24.205Z,1033.62
2016-09-02T09:00:24.213Z,1033.68
2016-09-02T09:01:24.215Z,1033.73
2016-09-02T09:02:24.219Z,1033.76
2016-09-02T09:03:24.225Z,1033.76
2016-09-02T09:04:24.232Z,1033.8
2016-09-02T09:05:24.235Z,1033.81
2016-09-02T09:06:24.247Z,1033.85
2016-09-02T09:07:24.245Z,1033.91
2016-09-02T09:08:24.254Z,1033.9
2016-09-02T09:09:24.255Z,1033.94
2016-09-02T09:10:24.257Z,1034.09
2016-09-02T09:11:24.263Z,1034.16
2016-09-02T09:12:24.266Z,1034.23
2016-09-02T09:13:24.276Z,1034.28
2016-09-02T09:14:24.274Z,1034.33
2016-09-02T09:15:24.281Z,1034.4
2016-09-02T09:17:24.286Z,1034.35
2016-09-02T09:18:24.296Z,1034.38
2016-09-02T09:19:24.293Z,1034.36
2016-09-02T09:20:24.303Z,1034.38
2016-09-02T09:21:24.307Z,1034.36
2016-09-02T09:22:24.304Z,1034.38
2016-09-02T09:23:24.309Z,1034.32
2016-09-02T09:26:24.319Z,1034.38
2016-09-02T09:27:24.323Z,1034.39
2016-09-02T09:31:24.332Z,1034.36
2016-09-02T09:32:24.335Z,1034.45
2016-09-02T09:33:24.340Z,1034.41
2016-09-02T09:34:24.342Z,1034.39
2016-09-02T09:36:24.349Z,1034.4
2016-09-02T09:37:24.350Z,1034.39
2016-09-02T09:38:24.352Z,1034.36
2016-09-02T09:39:24.360Z,1034.35
2016-09-02T09:40:24.358Z,1034.29
2016-09-02T09:43:24.373Z,1034.3
2016-09-02T09:44:24.370Z,1034.26
2016-09-02T09:45:24.371Z,1034.25
2016-09-02T09:46:24.374Z,1034.26
2016-09-02T09:47:24.378Z,1034.29
2016-09-02T09:48:24.381Z,1034.35
2016-09-02T09:49:24.388Z,1034.4
2016-09-02T09:50:24.386Z,1034.39
2016-09-02T09:51:24.394Z,1034.35
2016-09-02T09:52:24.390Z,1034.35
2016-09-02T09:53:24.437Z,1034.35
2016-09-02T09:54:24.455Z,1034.36
2016-09-02T09:55:24.501Z,1034.34
2016-09-02T09:56:24.406Z,1034.35
2016-09-02T09:57:24.406Z,1034.3
2016-09-02T09:58:24.412Z,1034.27
2016-09-02T09:59:24.462Z,1034.23
2016-09-02T10:00:24.410Z,1034.2
2016-09-02T10:01:24.413Z,1034.27
2016-09-02T10:02:24.418Z,1034.25
2016-09-02T10:03:24.417Z,1034.21
2016-09-02T10:04:24.520Z,1034.08
2016-09-02T10:05:24.430Z,1034.06
2016-09-02T10:06:24.728Z,1034.06
2016-09-02T10:07:24.879Z,1034.08
2016-09-02T10:08:24.430Z,1034.03
2016-09-02T10:09:24.434Z,1034.03
2016-09-02T10:10:24.443Z,1034.05
2016-09-02T10:11:24.438Z,1034.09
2016-09-02T10:12:24.448Z,1034.1
2016-09-02T10:13:24.446Z,1034.06
2016-09-02T10:14:24.452Z,1034.07
2016-09-02T10:15:24.814Z,1034.14
2016-09-02T10:16:24.458Z,1034.12
2016-09-02T10:17:24.455Z,1034.11
2016-09-02T10:18:24.456Z,1034.11
2016-09-02T10:19:24.459Z,1034.07
2016-09-02T10:20:24.462Z,1034.01
2016-09-02T10:21:24.464Z,1033.99
2016-09-02T10:22:24.468Z,1033.88
2016-09-02T10:23:24.475Z,1033.81
2016-09-02T10:24:24.471Z,1033.85
2016-09-02T10:25:24.479Z,1033.78
2016-09-02T10:26:24.489Z,1033.75
2016-09-02T10:27:24.478Z,1033.74
2016-09-02T10:28:24.487Z,1033.75
2016-09-02T10:29:24.483Z,1033.72
2016-09-02T10:30:24.492Z,1033.71
2016-09-02T10:31:24.491Z,1033.69
2016-09-02T10:32:24.498Z,1033.68
2016-09-02T10:33:24.496Z,1033.69
2016-09-02T10:34:24.505Z,1033.62
2016-09-02T10:35:24.506Z,1033.68
2016-09-02T10:36:24.509Z,1033.65
2016-09-02T10:37:24.508Z,1033.67
2016-09-02T10:38:24.509Z,1033.61
2016-09-02T10:39:24.518Z,1033.61
2016-09-02T10:40:24.514Z,1033.61
2016-09-02T10:41:24.517Z,1033.62
2016-09-02T10:42:24.520Z,1033.62
2016-09-02T10:43:24.528Z,1033.61
2016-09-02T10:44:24.524Z,1033.58
2016-09-02T10:45:24.535Z,1033.57
2016-09-02T10:46:24.531Z,1033.6
2016-09-02T10:47:24.533Z,1033.6
2016-09-02T10:48:24.539Z,1033.64
2016-09-02T10:49:24.545Z,1033.54
2016-09-02T10:50:24.701Z,1033.54
2016-09-02T10:51:24.546Z,1033.39
2016-09-02T10:52:24.553Z,1033.33
2016-09-02T10:53:24.604Z,1033.31
2016-09-02T10:54:24.555Z,1033.25
2016-09-02T10:55:24.556Z,1033.22
2016-09-02T10:56:24.558Z,1033.14
2016-09-02T10:57:24.568Z,1033.17
2016-09-02T10:58:24.564Z,1033.08
2016-09-02T10:59:24.568Z,1033.21
2016-09-02T11:00:24.571Z,1033.16
2016-09-02T11:01:24.579Z,1033.09
2016-09-02T11:02:24.576Z,1032.99
2016-09-02T11:04:24.582Z,1032.92
2016-09-02T11:05:24.589Z,1032.93
2016-09-02T11:06:24.589Z,1032.93
2016-09-02T11:07:24.596Z,1032.89
2016-09-02T11:08:24.595Z,1032.84
2016-09-02T11:10:24.601Z,1032.78
2016-09-02T11:11:24.605Z,1032.85
2016-09-02T11:12:24.613Z,1032.79
2016-09-02T11:13:24.614Z,1032.74
2016-09-02T11:14:24.621Z,1032.67
2016-09-02T11:15:24.890Z,1032.65
2016-09-02T11:16:24.618Z,1032.62
2016-09-02T11:18:25.236Z,1032.55
2016-09-02T11:19:25.184Z,1032.62
2016-09-02T11:20:24.633Z,1032.58
2016-09-02T11:21:24.637Z,1032.52
2016-09-02T11:22:24.805Z,1032.5
2016-09-02T11:23:24.645Z,1032.43
2016-09-02T11:24:24.648Z,1032.38
2016-09-02T11:25:25.266Z,1032.38
2016-09-02T11:26:24.658Z,1032.33
2016-09-02T11:27:24.661Z,1032.41
2016-09-02T11:28:24.666Z,1032.39
2016-09-02T11:29:24.867Z,1032.35
2016-09-02T11:30:24.674Z,1032.3
2016-09-02T11:31:24.681Z,1032.19
2016-09-02T11:32:24.692Z,1032.15
2016-09-02T11:34:24.687Z,1031.98
2016-09-02T11:35:24.691Z,1031.93
2016-09-02T11:36:24.698Z,1031.85
2016-09-02T11:37:24.699Z,1031.75
2016-09-02T11:38:24.702Z,1031.67
2016-09-02T11:39:24.709Z,1031.61
2016-09-02T11:40:24.713Z,1031.53
2016-09-02T11:41:24.716Z,1031.5
2016-09-02T11:42:24.721Z,1031.46
2016-09-02T11:43:24.723Z,1031.38
2016-09-02T11:44:24.735Z,1031.37
2016-09-02T11:45:25.003Z,1031.32
2016-09-02T11:46:24.744Z,1031.29
2016-09-02T11:47:24.750Z,1031.29
2016-09-02T11:48:24.747Z,1031.26
2016-09-02T11:49:24.752Z,1031.14
2016-09-02T11:50:24.763Z,1031.17
2016-09-02T11:51:24.763Z,1031.17
2016-09-02T11:52:24.775Z,1031.13
2016-09-02T11:53:24.772Z,1031.16
2016-09-02T11:54:24.783Z,1031.05
2016-09-02T11:55:24.784Z,1031.08
2016-09-02T11:56:24.788Z,1031
2016-09-02T11:57:24.793Z,1030.98
2016-09-02T11:58:24.799Z,1030.92
2016-09-02T11:59:24.806Z,1030.94
2016-09-02T12:00:24.815Z,1030.94
2016-09-02T12:01:24.815Z,1030.97
2016-09-02T12:02:24.820Z,1030.88
2016-09-02T12:03:24.826Z,1030.77
2016-09-02T12:04:24.831Z,1030.77
2016-09-02T12:05:24.837Z,1030.76
2016-09-02T12:06:24.842Z,1030.7
2016-09-02T12:07:24.848Z,1030.7
2016-09-02T12:08:24.854Z,1030.72
2016-09-02T12:09:24.867Z,1030.68
2016-09-02T12:10:24.869Z,1030.65
2016-09-02T12:11:24.871Z,1030.59
2016-09-02T12:12:31.139Z,1030.5
2016-09-02T12:13:24.883Z,1030.5
2016-09-02T12:14:24.890Z,1030.49
2016-09-02T12:15:24.901Z,1030.43
2016-09-02T12:16:24.900Z,1030.5
2016-09-02T12:17:24.912Z,1030.52
2016-09-02T12:18:24.912Z,1030.46
2016-09-02T12:19:24.924Z,1030.4
2016-09-02T12:20:24.923Z,1030.35
2016-09-02T12:22:24.935Z,1030.27
2016-09-02T12:23:31.205Z,1030.23
2016-09-02T12:24:24.953Z,1030.17
2016-09-02T12:25:24.955Z,1030.24
2016-09-02T12:26:24.965Z,1030.23
2016-09-02T12:27:25.618Z,1030.2
2016-09-02T12:28:24.970Z,1030.19
2016-09-02T12:29:25.034Z,1030.19
2016-09-02T12:30:31.251Z,1030.24
2016-09-02T12:34:25.008Z,1030.36
2016-09-02T12:35:25.011Z,1030.38
2016-09-02T12:37:25.024Z,1030.33